Time;durP1;ratioP1;P1;durP2;ratioP2;P2;SDS_P1;SDS_P2;PMS_P1;PMS_P2;Temp;Humidity;BMP_temperature;BMP_pressure;BME280_temperature;BME280_humidity;BME280_pressure;Samples;Min_cycle;Max_cycle;Signal;HPM_P1;HPM_P2
2024/02/02 00:01:10;;;;;;;13.02;4.82;;;;;;;;;;5052527;22;20466;-84
2024/02/02 00:03:37;;;;;;;11.57;4.28;;;;;;;;;;5061871;28;20149;-84
2024/02/02 00:06:05;;;;;;;8.23;4.13;;;;;;;;;;5044736;28;20442;-84
2024/02/02 00:08:32;;;;;;;16.75;5.10;;;;;;;;;;5044915;28;20041;-84
2024/02/02 00:11:00;;;;;;;11.70;4.68;;;;;;;;;;5047899;28;20048;-84
2024/02/02 00:13:28;;;;;;;9.98;4.25;;;;;;;;;;5044409;28;20057;-83
2024/02/02 00:15:55;;;;;;;14.23;4.40;;;;;;;;;;5038933;28;20183;-83
2024/02/02 00:18:22;;;;;;;13.48;4.18;;;;;;;;;;5056496;28;20498;-84
2024/02/02 00:23:23;;;;;;;12.10;4.78;;;;;;;;;;5016696;28;20038;-82
2024/02/02 00:25:51;;;;;;;9.57;4.28;;;;;;;;;;5017270;28;20116;-81
2024/02/02 00:28:18;;;;;;;12.30;3.58;;;;;;;;;;5011609;28;20046;-79
2024/02/02 00:30:45;;;;;;;10.70;3.88;;;;;;;;;;5019221;28;20516;-81
2024/02/02 00:33:12;;;;;;;11.63;3.80;;;;;;;;;;5055137;22;20073;-80
2024/02/02 00:35:40;;;;;;;9.02;4.03;;;;;;;;;;5015142;28;20061;-79
2024/02/02 00:38:07;;;;;;;9.13;3.50;;;;;;;;;;5034957;28;20057;-80
2024/02/02 00:40:34;;;;;;;15.65;4.75;;;;;;;;;;5016973;28;20045;-80
2024/02/02 00:43:01;;;;;;;13.68;3.97;;;;;;;;;;5017199;28;20045;-79
2024/02/02 00:45:28;;;;;;;12.30;4.40;;;;;;;;;;5033422;28;20045;-79
2024/02/02 00:47:56;;;;;;;9.95;3.90;;;;;;;;;;5016331;28;20129;-79
2024/02/02 00:50:24;;;;;;;17.35;5.68;;;;;;;;;;5034000;28;20049;-79
2024/02/02 00:52:51;;;;;;;13.55;4.50;;;;;;;;;;5016586;28;20103;-80
2024/02/02 00:55:18;;;;;;;11.07;4.30;;;;;;;;;;5016416;28;20054;-78
2024/02/02 00:57:45;;;;;;;15.35;4.68;;;;;;;;;;5034339;28;20049;-80
2024/02/02 01:00:13;;;;;;;15.27;4.70;;;;;;;;;;5034747;28;20500;-80
2024/02/02 01:02:40;;;;;;;12.30;4.57;;;;;;;;;;5016554;28;20045;-79
2024/02/02 01:05:12;;;;;;;14.15;3.90;;;;;;;;;;5016483;28;20045;-79
2024/02/02 01:07:39;;;;;;;16.23;4.90;;;;;;;;;;5016609;28;20041;-79
2024/02/02 01:10:10;;;;;;;14.60;4.05;;;;;;;;;;5034406;28;20095;-79
2024/02/02 01:12:37;;;;;;;9.18;3.67;;;;;;;;;;5034034;28;20045;-79
2024/02/02 01:15:05;;;;;;;15.88;4.20;;;;;;;;;;5034645;28;20076;-79
2024/02/02 01:17:33;;;;;;;11.27;4.10;;;;;;;;;;5016867;28;20076;-78
2024/02/02 01:20:03;;;;;;;11.48;3.50;;;;;;;;;;5016853;28;20049;-79
2024/02/02 01:22:31;;;;;;;9.63;3.80;;;;;;;;;;5034425;28;20050;-80
2024/02/02 01:24:58;;;;;;;13.23;4.43;;;;;;;;;;5034563;28;20049;-80
2024/02/02 01:27:25;;;;;;;13.55;3.92;;;;;;;;;;5016852;28;20454;-80
2024/02/02 01:29:53;;;;;;;12.50;4.20;;;;;;;;;;5034695;28;20124;-79
2024/02/02 01:32:20;;;;;;;12.95;4.97;;;;;;;;;;5034410;28;20622;-80
2024/02/02 01:34:47;;;;;;;12.77;3.90;;;;;;;;;;5034447;28;20475;-80
2024/02/02 01:37:14;;;;;;;12.68;3.85;;;;;;;;;;5034610;28;20119;-79
2024/02/02 01:39:42;;;;;;;16.13;4.55;;;;;;;;;;5034466;28;20050;-79
2024/02/02 01:42:09;;;;;;;16.90;4.50;;;;;;;;;;5034860;28;20049;-80
2024/02/02 01:44:36;;;;;;;14.52;4.53;;;;;;;;;;5016975;28;20046;-80
2024/02/02 01:47:04;;;;;;;17.17;4.35;;;;;;;;;;5010961;28;20042;-78
2024/02/02 01:49:31;;;;;;;15.48;3.90;;;;;;;;;;5033356;28;20046;-80
2024/02/02 01:51:58;;;;;;;17.77;4.38;;;;;;;;;;5017130;28;20462;-79
2024/02/02 01:54:26;;;;;;;11.63;4.00;;;;;;;;;;5035305;28;20500;-79
2024/02/02 01:56:54;;;;;;;11.20;3.90;;;;;;;;;;5036894;28;20133;-79
2024/02/02 01:59:22;;;;;;;13.35;4.60;;;;;;;;;;5020751;28;20107;-79
2024/02/02 02:01:49;;;;;;;10.55;4.65;;;;;;;;;;5039036;28;20096;-79
2024/02/02 02:04:16;;;;;;;13.30;4.35;;;;;;;;;;5037920;28;20045;-79
2024/02/02 02:06:44;;;;;;;12.40;4.10;;;;;;;;;;5021114;28;20100;-79
2024/02/02 02:09:11;;;;;;;9.02;4.32;;;;;;;;;;5038340;28;20104;-79
2024/02/02 02:11:39;;;;;;;15.65;4.22;;;;;;;;;;5021255;28;20057;-79
2024/02/02 02:14:06;;;;;;;18.67;4.70;;;;;;;;;;5020874;28;20049;-79
2024/02/02 02:16:33;;;;;;;16.95;5.35;;;;;;;;;;5038561;28;20107;-79
2024/02/02 02:19:04;;;;;;;15.57;4.40;;;;;;;;;;5021156;28;20045;-79
2024/02/02 02:21:31;;;;;;;15.75;4.90;;;;;;;;;;5021267;28;20056;-80
2024/02/02 02:23:58;;;;;;;14.15;4.30;;;;;;;;;;5038527;28;20123;-79
2024/02/02 02:26:29;;;;;;;12.52;4.57;;;;;;;;;;5038832;28;20092;-79
2024/02/02 02:28:56;;;;;;;14.98;4.15;;;;;;;;;;5021074;28;20087;-78
2024/02/02 02:31:23;;;;;;;14.35;4.20;;;;;;;;;;5037517;28;20126;-79
2024/02/02 02:33:51;;;;;;;12.45;4.20;;;;;;;;;;5038599;28;20053;-80
2024/02/02 02:36:20;;;;;;;9.98;4.28;;;;;;;;;;5039206;28;20049;-79
2024/02/02 02:38:48;;;;;;;10.55;3.90;;;;;;;;;;5021404;28;20143;-79
2024/02/02 02:41:16;;;;;;;11.95;4.57;;;;;;;;;;5021291;28;20060;-79
2024/02/02 02:43:43;;;;;;;13.18;4.53;;;;;;;;;;5040557;28;20053;-79
2024/02/02 02:46:10;;;;;;;13.80;4.63;;;;;;;;;;5043622;28;20455;-80
2024/02/02 02:48:37;;;;;;;22.60;4.60;;;;;;;;;;5042466;28;20060;-78
2024/02/02 02:51:05;;;;;;;16.15;4.53;;;;;;;;;;5028666;28;20046;-79
2024/02/02 02:53:32;;;;;;;15.23;4.47;;;;;;;;;;5040153;28;20057;-79
2024/02/02 02:56:00;;;;;;;17.17;4.75;;;;;;;;;;5020321;28;20439;-78
2024/02/02 02:58:28;;;;;;;13.40;4.80;;;;;;;;;;5019934;28;20058;-79
2024/02/02 03:00:55;;;;;;;11.80;4.35;;;;;;;;;;5037473;28;20049;-79
2024/02/02 03:03:23;;;;;;;7.97;3.95;;;;;;;;;;5019400;28;20423;-79
2024/02/02 03:05:50;;;;;;;12.23;4.43;;;;;;;;;;5018748;28;20045;-79
2024/02/02 03:08:17;;;;;;;14.80;4.32;;;;;;;;;;5010328;28;20134;-78
2024/02/02 03:10:44;;;;;;;15.77;3.97;;;;;;;;;;5011317;28;20041;-79
2024/02/02 03:13:12;;;;;;;20.08;5.03;;;;;;;;;;5036579;28;20397;-79
2024/02/02 03:15:40;;;;;;;15.95;3.92;;;;;;;;;;5018504;28;20523;-78
2024/02/02 03:18:07;;;;;;;10.15;3.90;;;;;;;;;;5036220;28;20488;-79
2024/02/02 03:20:35;;;;;;;19.67;4.65;;;;;;;;;;5018286;28;20049;-78
2024/02/02 03:23:02;;;;;;;15.68;4.38;;;;;;;;;;5035809;28;20050;-79
2024/02/02 03:25:29;;;;;;;13.77;4.50;;;;;;;;;;5017808;28;20245;-79
2024/02/02 03:27:57;;;;;;;14.80;4.80;;;;;;;;;;5018411;28;20484;-79
2024/02/02 03:30:26;;;;;;;13.40;4.30;;;;;;;;;;5035397;28;20496;-79
2024/02/02 03:32:54;;;;;;;16.40;4.60;;;;;;;;;;5035659;28;20045;-80
2024/02/02 03:35:22;;;;;;;13.23;4.40;;;;;;;;;;5034837;28;20133;-78
2024/02/02 03:37:49;;;;;;;11.95;3.60;;;;;;;;;;5017169;28;20053;-79
2024/02/02 03:40:16;;;;;;;21.20;5.38;;;;;;;;;;5017574;28;20488;-78
2024/02/02 03:42:43;;;;;;;11.82;4.50;;;;;;;;;;5017490;28;20419;-78
2024/02/02 03:45:11;;;;;;;17.95;4.85;;;;;;;;;;5017477;28;20052;-79
2024/02/02 03:47:39;;;;;;;17.95;5.40;;;;;;;;;;5034521;28;20062;-78
2024/02/02 03:50:06;;;;;;;17.50;5.22;;;;;;;;;;5027970;28;20401;-79
2024/02/02 03:52:34;;;;;;;13.35;4.07;;;;;;;;;;5033078;28;20092;-78
2024/02/02 03:55:01;;;;;;;18.92;4.75;;;;;;;;;;5016787;28;20095;-79
2024/02/02 03:57:28;;;;;;;12.18;4.05;;;;;;;;;;5026355;28;20492;-78
2024/02/02 03:59:55;;;;;;;12.15;4.70;;;;;;;;;;5016705;28;20081;-78
2024/02/02 04:02:23;;;;;;;14.10;3.95;;;;;;;;;;5035293;28;20057;-79
2024/02/02 04:04:50;;;;;;;12.27;4.28;;;;;;;;;;5036108;28;20126;-78
2024/02/02 04:07:17;;;;;;;11.80;3.85;;;;;;;;;;5018225;28;20097;-79
2024/02/02 04:09:44;;;;;;;12.10;4.38;;;;;;;;;;5018580;28;20045;-78
2024/02/02 04:12:12;;;;;;;20.10;4.90;;;;;;;;;;5035450;28;20069;-78
2024/02/02 04:14:39;;;;;;;18.35;5.10;;;;;;;;;;5035061;28;20046;-78
2024/02/02 04:17:07;;;;;;;15.27;5.53;;;;;;;;;;5035206;28;20052;-79
2024/02/02 04:19:34;;;;;;;14.40;5.95;;;;;;;;;;5035608;28;20060;-79
2024/02/02 04:22:01;;;;;;;17.45;4.90;;;;;;;;;;5031085;28;20060;-79
2024/02/02 04:24:29;;;;;;;20.45;5.53;;;;;;;;;;5035376;28;20046;-80
2024/02/02 04:26:56;;;;;;;16.02;5.40;;;;;;;;;;5019093;28;20050;-80
2024/02/02 04:29:23;;;;;;;16.92;5.40;;;;;;;;;;5018458;28;20049;-80
2024/02/02 04:31:50;;;;;;;14.27;4.63;;;;;;;;;;5036826;28;20046;-80
2024/02/02 04:34:18;;;;;;;11.30;5.47;;;;;;;;;;5035639;28;20058;-79
2024/02/02 04:36:45;;;;;;;22.23;7.65;;;;;;;;;;5018100;28;20053;-79
2024/02/02 04:39:12;;;;;;;19.23;7.60;;;;;;;;;;5018509;28;20053;-80
2024/02/02 04:41:40;;;;;;;12.52;5.50;;;;;;;;;;5035754;28;20080;-79
2024/02/02 04:44:07;;;;;;;15.95;6.25;;;;;;;;;;5034741;28;20042;-79
2024/02/02 04:46:34;;;;;;;16.98;6.25;;;;;;;;;;5035392;28;20100;-79
2024/02/02 04:49:01;;;;;;;13.20;5.20;;;;;;;;;;5034942;28;20049;-79
2024/02/02 04:51:30;;;;;;;15.20;5.15;;;;;;;;;;5035015;28;20049;-79
2024/02/02 04:53:57;;;;;;;11.50;5.57;;;;;;;;;;5034275;28;20051;-78
2024/02/02 04:56:25;;;;;;;13.95;6.13;;;;;;;;;;5034600;28;20056;-79
2024/02/02 04:58:53;;;;;;;16.90;6.38;;;;;;;;;;5034257;28;20049;-80
2024/02/02 05:01:20;;;;;;;19.60;6.03;;;;;;;;;;5016262;28;20053;-78
2024/02/02 05:03:47;;;;;;;15.55;6.63;;;;;;;;;;5016320;28;20042;-79
2024/02/02 05:06:16;;;;;;;20.67;6.85;;;;;;;;;;5016990;28;20119;-80
2024/02/02 05:08:44;;;;;;;16.20;5.63;;;;;;;;;;5025753;28;20072;-79
2024/02/02 05:11:12;;;;;;;13.88;6.03;;;;;;;;;;5017432;28;20054;-80
2024/02/02 05:13:39;;;;;;;14.60;5.78;;;;;;;;;;5014486;28;20050;-79
2024/02/02 05:16:08;;;;;;;14.07;5.85;;;;;;;;;;5028944;28;20045;-79
2024/02/02 05:18:37;;;;;;;13.10;5.40;;;;;;;;;;5016803;28;20103;-79
2024/02/02 05:21:05;;;;;;;18.35;5.93;;;;;;;;;;5033948;28;20046;-79
2024/02/02 05:23:32;;;;;;;10.23;4.68;;;;;;;;;;5033636;28;20053;-80
2024/02/02 05:25:59;;;;;;;13.65;5.20;;;;;;;;;;5034166;28;20050;-79
2024/02/02 05:28:26;;;;;;;14.38;5.28;;;;;;;;;;5015981;28;20045;-79
2024/02/02 05:30:53;;;;;;;11.48;5.28;;;;;;;;;;5016503;28;20484;-79
2024/02/02 05:33:21;;;;;;;15.35;5.30;;;;;;;;;;5019842;28;20045;-79
2024/02/02 05:35:48;;;;;;;21.25;5.30;;;;;;;;;;5020587;28;20562;-78
2024/02/02 05:38:15;;;;;;;13.50;5.25;;;;;;;;;;5037497;28;20046;-80
2024/02/02 05:40:43;;;;;;;18.70;5.28;;;;;;;;;;5020047;28;20103;-79
2024/02/02 05:43:12;;;;;;;14.68;5.20;;;;;;;;;;5037220;28;20046;-79
2024/02/02 05:45:39;;;;;;;15.50;5.15;;;;;;;;;;5026620;28;20049;-79
2024/02/02 05:48:07;;;;;;;12.00;5.60;;;;;;;;;;5000150;28;20459;-78
2024/02/02 05:50:34;;;;;;;12.10;4.80;;;;;;;;;;5021460;28;20394;-80
2024/02/02 05:53:01;;;;;;;15.02;5.72;;;;;;;;;;5020118;28;20052;-80
2024/02/02 05:55:29;;;;;;;17.52;5.80;;;;;;;;;;5020973;28;20062;-80
2024/02/02 05:57:57;;;;;;;12.82;5.30;;;;;;;;;;5034072;28;20499;-80
2024/02/02 06:00:24;;;;;;;14.50;5.65;;;;;;;;;;5022487;28;20488;-80
2024/02/02 06:02:52;;;;;;;20.98;5.57;;;;;;;;;;5016776;28;20061;-79
2024/02/02 06:05:19;;;;;;;15.10;5.38;;;;;;;;;;5017916;28;20049;-80
2024/02/02 06:07:46;;;;;;;10.68;5.00;;;;;;;;;;5020850;28;20045;-79
2024/02/02 06:10:14;;;;;;;14.48;5.60;;;;;;;;;;5020942;28;20045;-79
2024/02/02 06:12:41;;;;;;;18.38;5.57;;;;;;;;;;5038542;28;20053;-80
2024/02/02 06:15:09;;;;;;;15.43;6.28;;;;;;;;;;5020703;28;20128;-79
2024/02/02 06:17:36;;;;;;;11.20;5.57;;;;;;;;;;5038320;28;20531;-79
2024/02/02 06:20:04;;;;;;;16.75;6.50;;;;;;;;;;5020482;28;20053;-80
2024/02/02 06:22:31;;;;;;;18.58;6.80;;;;;;;;;;5037731;28;20504;-79
2024/02/02 06:24:58;;;;;;;18.35;7.07;;;;;;;;;;5037390;28;20049;-80
2024/02/02 06:27:27;;;;;;;22.63;8.45;;;;;;;;;;5037156;28;20471;-80
2024/02/02 06:29:54;;;;;;;15.85;9.25;;;;;;;;;;5037971;28;20072;-79
2024/02/02 06:32:22;;;;;;;18.75;8.00;;;;;;;;;;5019249;28;20049;-80
2024/02/02 06:34:55;;;;;;;19.85;8.98;;;;;;;;;;5042008;23;20049;-88
2024/02/02 06:37:26;;;;;;;17.73;7.88;;;;;;;;;;5009828;28;20045;-88
2024/02/02 06:39:55;;;;;;;21.77;7.18;;;;;;;;;;5007433;28;20042;-88
2024/02/02 06:42:26;;;;;;;28.95;7.43;;;;;;;;;;5006857;28;20109;-88
2024/02/02 06:44:57;;;;;;;16.27;6.22;;;;;;;;;;5035299;28;20045;-87
2024/02/02 06:47:25;;;;;;;19.85;7.95;;;;;;;;;;5015282;28;20057;-88
2024/02/02 06:49:52;;;;;;;20.70;7.45;;;;;;;;;;5006704;28;20049;-88
2024/02/02 06:52:21;;;;;;;17.73;8.00;;;;;;;;;;5006773;28;20390;-88
2024/02/02 06:54:48;;;;;;;19.67;7.50;;;;;;;;;;5006973;28;20049;-88
2024/02/02 06:57:16;;;;;;;15.38;7.50;;;;;;;;;;5014694;28;20103;-88
2024/02/02 06:59:43;;;;;;;15.25;7.55;;;;;;;;;;5010293;28;20572;-88
2024/02/02 07:02:20;;;;;;;20.67;9.13;;;;;;;;;;5027138;28;20056;-88
2024/02/02 07:04:48;;;;;;;15.98;7.40;;;;;;;;;;5018801;28;20049;-87
2024/02/02 07:07:15;;;;;;;27.45;10.32;;;;;;;;;;5002123;28;20092;-87
2024/02/02 07:09:53;;;;;;;32.95;10.20;;;;;;;;;;5010047;28;20055;-86
2024/02/02 07:12:46;;;;;;;20.88;9.15;;;;;;;;;;5010038;28;20088;-88
2024/02/02 07:15:17;;;;;;;17.85;8.02;;;;;;;;;;5026958;28;20045;-88
2024/02/02 07:17:45;;;;;;;18.02;7.25;;;;;;;;;;5006300;28;20046;-87
2024/02/02 07:20:15;;;;;;;18.70;7.25;;;;;;;;;;5006529;28;20060;-87
2024/02/02 07:22:43;;;;;;;24.27;6.45;;;;;;;;;;5006034;28;20055;-88
2024/02/02 07:25:18;;;;;;;18.20;5.90;;;;;;;;;;5015379;28;20046;-88
2024/02/02 07:27:49;;;;;;;14.90;6.03;;;;;;;;;;5023565;28;20068;-87
2024/02/02 07:30:23;;;;;;;15.77;5.20;;;;;;;;;;5006150;28;20092;-87
2024/02/02 07:32:50;;;;;;;18.20;5.50;;;;;;;;;;5027593;28;20042;-87
2024/02/02 07:35:30;;;;;;;14.43;4.80;;;;;;;;;;5025468;28;20057;-87
2024/02/02 07:37:59;;;;;;;14.43;5.38;;;;;;;;;;5023228;28;20054;-87
2024/02/02 07:40:45;;;;;;;12.88;4.68;;;;;;;;;;5012270;28;20050;-88
2024/02/02 07:43:12;;;;;;;10.25;4.43;;;;;;;;;;5017547;28;20037;-87
2024/02/02 07:45:39;;;;;;;15.45;4.05;;;;;;;;;;5012111;28;20050;-87
2024/02/02 07:48:06;;;;;;;10.85;5.32;;;;;;;;;;5022986;28;20113;-88
2024/02/02 07:50:34;;;;;;;11.93;5.15;;;;;;;;;;5008059;28;20097;-88
2024/02/02 07:53:01;;;;;;;14.32;4.80;;;;;;;;;;5009262;28;20046;-88
2024/02/02 07:55:29;;;;;;;12.75;4.40;;;;;;;;;;5033010;28;20104;-87
2024/02/02 07:57:56;;;;;;;16.73;6.32;;;;;;;;;;5005884;28;20049;-88
2024/02/02 08:00:25;;;;;;;9.30;4.20;;;;;;;;;;5007130;28;20100;-86
2024/02/02 08:02:52;;;;;;;14.27;5.25;;;;;;;;;;5008895;28;20063;-86
2024/02/02 08:05:20;;;;;;;12.98;4.45;;;;;;;;;;5008798;28;20049;-88
2024/02/02 08:07:47;;;;;;;19.08;5.07;;;;;;;;;;5006059;28;20054;-87
2024/02/02 08:10:14;;;;;;;11.63;4.38;;;;;;;;;;5005454;28;20108;-87
2024/02/02 08:12:41;;;;;;;16.55;4.53;;;;;;;;;;5016582;28;20049;-87
2024/02/02 08:15:09;;;;;;;14.88;4.28;;;;;;;;;;5008824;28;20500;-87
2024/02/02 08:17:36;;;;;;;14.52;4.13;;;;;;;;;;5013282;28;20447;-87
2024/02/02 08:20:03;;;;;;;7.82;3.67;;;;;;;;;;5005542;28;20418;-88
2024/02/02 08:22:31;;;;;;;10.55;3.20;;;;;;;;;;5006746;28;20061;-88
2024/02/02 08:24:58;;;;;;;10.50;3.10;;;;;;;;;;5025212;28;20049;-87
2024/02/02 08:27:25;;;;;;;9.40;3.05;;;;;;;;;;5013051;28;20108;-87
2024/02/02 08:29:52;;;;;;;10.10;3.25;;;;;;;;;;5005158;28;20053;-86
2024/02/02 08:32:20;;;;;;;13.60;3.38;;;;;;;;;;5005259;28;20100;-87
2024/02/02 08:34:47;;;;;;;10.30;3.58;;;;;;;;;;5001206;28;20051;-88
2024/02/02 08:37:15;;;;;;;8.82;3.55;;;;;;;;;;5009162;28;20058;-87
2024/02/02 08:39:42;;;;;;;13.80;3.40;;;;;;;;;;5018245;28;20471;-87
2024/02/02 08:42:15;;;;;;;13.95;3.85;;;;;;;;;;5001318;28;20286;-88
2024/02/02 08:44:42;;;;;;;11.32;3.17;;;;;;;;;;5009475;28;20077;-88
2024/02/02 08:47:09;;;;;;;7.60;2.80;;;;;;;;;;5001706;28;20058;-88
2024/02/02 08:49:47;;;;;;;10.23;2.72;;;;;;;;;;5004990;28;20042;-88
2024/02/02 08:52:25;;;;;;;10.45;2.30;;;;;;;;;;5004790;28;20506;-88
2024/02/02 08:54:52;;;;;;;10.55;2.78;;;;;;;;;;5008494;28;20058;-87
2024/02/02 08:57:31;;;;;;;13.57;2.78;;;;;;;;;;5011739;28;20045;-87
2024/02/02 09:00:25;;;;;;;8.20;2.78;;;;;;;;;;5002210;28;20053;-87
2024/02/02 09:02:53;;;;;;;6.88;2.45;;;;;;;;;;4970746;28;20141;-87
2024/02/02 09:05:21;;;;;;;7.97;2.55;;;;;;;;;;5004087;28;20055;-87
2024/02/02 09:07:53;;;;;;;7.05;2.40;;;;;;;;;;5004086;28;20133;-87
2024/02/02 09:10:30;;;;;;;9.15;2.03;;;;;;;;;;5004635;28;20095;-88
2024/02/02 09:13:01;;;;;;;13.73;3.13;;;;;;;;;;5002762;28;20081;-87
2024/02/02 09:15:33;;;;;;;7.72;2.95;;;;;;;;;;4999082;28;20474;-87
2024/02/02 09:18:01;;;;;;;11.73;2.67;;;;;;;;;;4995491;28;20485;-87
2024/02/02 09:20:35;;;;;;;10.73;2.65;;;;;;;;;;5016524;28;20041;-88
2024/02/02 09:23:02;;;;;;;;;;;;;;;;;;5007992;28;20058;-87
2024/02/02 09:25:35;;;;;;;11.73;2.33;;;;;;;;;;5002492;28;19957;-88
2024/02/02 09:28:04;;;;;;;11.05;2.75;;;;;;;;;;5004419;28;20096;-87
2024/02/02 09:30:31;;;;;;;6.30;2.55;;;;;;;;;;5011355;28;20557;-87
2024/02/02 09:32:59;;;;;;;12.25;3.28;;;;;;;;;;5002044;28;20117;-88
2024/02/02 09:35:46;;;;;;;12.10;2.55;;;;;;;;;;5007314;28;20066;-87
2024/02/02 09:38:13;;;;;;;7.07;2.53;;;;;;;;;;5001019;28;20105;-87
2024/02/02 09:40:50;;;;;;;11.80;2.78;;;;;;;;;;5000791;28;20462;-87
2024/02/02 09:43:24;;;;;;;8.30;2.65;;;;;;;;;;4994374;28;20105;-88
2024/02/02 09:45:51;;;;;;;9.40;2.58;;;;;;;;;;5013486;28;20104;-91
2024/02/02 09:48:18;;;;;;;10.15;3.17;;;;;;;;;;5005444;28;20050;-87
2024/02/02 09:50:49;;;;;;;12.05;2.60;;;;;;;;;;5000653;28;20514;-88
2024/02/02 09:53:27;;;;;;;10.43;2.80;;;;;;;;;;5000364;28;20100;-88
2024/02/02 09:55:54;;;;;;;14.48;2.70;;;;;;;;;;5013443;28;20121;-87
2024/02/02 09:58:28;;;;;;;12.52;3.20;;;;;;;;;;5003633;28;20095;-88
2024/02/02 10:01:15;;;;;;;7.05;2.38;;;;;;;;;;5000759;28;20046;-87
2024/02/02 10:03:54;;;;;;;10.90;3.00;;;;;;;;;;5003943;28;20046;-89
2024/02/02 10:06:40;;;;;;;15.00;3.38;;;;;;;;;;5004449;28;20104;-88
2024/02/02 10:09:34;;;;;;;16.67;3.13;;;;;;;;;;5000411;28;20109;-88
2024/02/02 10:12:22;;;;;;;9.70;3.15;;;;;;;;;;5032629;28;20109;-88
2024/02/02 10:14:49;;;;;;;15.80;3.15;;;;;;;;;;5008737;28;20049;-87
2024/02/02 10:17:22;;;;;;;14.15;2.80;;;;;;;;;;5001096;28;20054;-87
2024/02/02 10:20:05;;;;;;;12.15;3.25;;;;;;;;;;5011412;28;20105;-88
2024/02/02 10:22:43;;;;;;;9.32;2.90;;;;;;;;;;5005912;28;20065;-88
2024/02/02 10:25:20;;;;;;;14.38;3.25;;;;;;;;;;5009059;28;20148;-88
2024/02/02 10:27:56;;;;;;;8.13;3.03;;;;;;;;;;5017127;28;20050;-88
2024/02/02 10:30:32;;;;;;;12.90;3.10;;;;;;;;;;5006191;28;20046;-88
2024/02/02 10:33:09;;;;;;;9.55;3.03;;;;;;;;;;5004703;28;20089;-88
2024/02/02 10:35:50;;;;;;;12.52;3.25;;;;;;;;;;5024965;28;20064;-88
2024/02/02 10:38:18;;;;;;;16.00;3.05;;;;;;;;;;5027412;28;20055;-89
2024/02/02 10:40:57;;;;;;;11.77;3.17;;;;;;;;;;5024577;28;20116;-89
2024/02/02 10:43:33;;;;;;;14.38;3.35;;;;;;;;;;5015601;28;20114;-87
2024/02/02 10:46:06;;;;;;;11.35;3.20;;;;;;;;;;5010057;28;20049;-90
2024/02/02 10:48:46;;;;;;;14.87;3.73;;;;;;;;;;5008282;28;20053;-87
2024/02/02 10:51:32;;;;;;;13.57;3.78;;;;;;;;;;5007305;28;20088;-88
2024/02/02 10:54:24;;;;;;;20.20;3.65;;;;;;;;;;5024250;28;20062;-88
2024/02/02 10:56:51;;;;;;;23.73;4.10;;;;;;;;;;5031181;28;20050;-89
2024/02/02 10:59:23;;;;;;;13.68;4.15;;;;;;;;;;5006972;28;20085;-88
2024/02/02 11:02:13;;;;;;;14.32;4.38;;;;;;;;;;5014776;28;20589;-87
2024/02/02 11:04:59;;;;;;;14.57;4.28;;;;;;;;;;5006424;28;20518;-88
2024/02/02 11:07:27;;;;;;;15.52;4.10;;;;;;;;;;4999888;28;20446;-88
2024/02/02 11:09:57;;;;;;;17.15;5.05;;;;;;;;;;5030537;28;20066;-87
2024/02/02 11:12:33;;;;;;;14.73;3.92;;;;;;;;;;5006996;28;20514;-87
2024/02/02 11:15:07;;;;;;;14.75;4.28;;;;;;;;;;5027107;28;20053;-88
2024/02/02 11:17:37;;;;;;;15.13;4.25;;;;;;;;;;5007572;28;20100;-88
2024/02/02 11:20:12;;;;;;;18.55;4.28;;;;;;;;;;5006537;28;20053;-89
2024/02/02 11:22:47;;;;;;;13.90;4.00;;;;;;;;;;5009051;28;20046;-87
2024/02/02 11:25:22;;;;;;;15.55;4.30;;;;;;;;;;5041693;28;20048;-85
2024/02/02 11:27:56;;;;;;;15.20;3.90;;;;;;;;;;5015730;28;20053;-88
2024/02/02 11:30:23;;;;;;;;;;;;;;;;;;5005440;28;20053;-89
2024/02/02 11:33:03;;;;;;;8.57;3.28;;;;;;;;;;5005919;28;19925;-89
2024/02/02 11:35:36;;;;;;;13.52;4.20;;;;;;;;;;5013575;28;20497;-87
2024/02/02 11:38:03;;;;;;;11.20;3.70;;;;;;;;;;5009499;28;20041;-89
2024/02/02 11:40:32;;;;;;;13.13;4.20;;;;;;;;;;5008240;28;20092;-87
2024/02/02 11:42:59;;;;;;;13.55;3.85;;;;;;;;;;5005968;28;20100;-89
2024/02/02 11:45:28;;;;;;;10.93;3.63;;;;;;;;;;5007136;28;20046;-88
2024/02/02 11:48:03;;;;;;;21.27;4.05;;;;;;;;;;5026428;28;20099;-88
2024/02/02 11:50:34;;;;;;;10.70;3.40;;;;;;;;;;5009267;28;20049;-88
2024/02/02 11:53:09;;;;;;;10.27;3.80;;;;;;;;;;5014299;28;20120;-89
2024/02/02 11:55:40;;;;;;;11.82;3.40;;;;;;;;;;5005138;28;20104;-88
2024/02/02 11:58:10;;;;;;;11.07;3.80;;;;;;;;;;5004611;28;20157;-87
2024/02/02 12:00:47;;;;;;;15.73;3.60;;;;;;;;;;5022920;28;20099;-87
2024/02/02 12:03:17;;;;;;;11.13;3.22;;;;;;;;;;5005921;28;20049;-88
2024/02/02 12:06:03;;;;;;;10.68;3.80;;;;;;;;;;5005395;28;20101;-89
2024/02/02 12:08:51;;;;;;;10.57;3.35;;;;;;;;;;5007029;28;20054;-88
2024/02/02 12:11:19;;;;;;;8.85;2.92;;;;;;;;;;5009055;28;20410;-89
2024/02/02 12:14:00;;;;;;;12.00;3.15;;;;;;;;;;5013287;28;20077;-92
2024/02/02 12:16:28;;;;;;;7.63;3.10;;;;;;;;;;5014804;28;20045;-88
2024/02/02 12:18:55;;;;;;;9.68;3.15;;;;;;;;;;5024930;28;20053;-88
2024/02/02 12:21:23;;;;;;;11.32;3.22;;;;;;;;;;5008288;28;20529;-89
2024/02/02 12:23:51;;;;;;;15.13;3.50;;;;;;;;;;5005890;28;20088;-87
2024/02/02 12:26:20;;;;;;;13.13;3.05;;;;;;;;;;5005569;28;20076;-89
2024/02/02 12:28:47;;;;;;;34.63;4.88;;;;;;;;;;5017324;28;20050;-88
2024/02/02 12:31:14;;;;;;;10.13;2.97;;;;;;;;;;5009260;28;20395;-88
2024/02/02 12:33:42;;;;;;;12.15;3.65;;;;;;;;;;5004605;28;20066;-88
2024/02/02 12:36:10;;;;;;;11.63;3.33;;;;;;;;;;5008794;28;20478;-90
2024/02/02 12:38:39;;;;;;;10.55;3.10;;;;;;;;;;5020491;28;20061;-89
2024/02/02 12:41:08;;;;;;;14.38;3.30;;;;;;;;;;5017781;28;20058;-89
2024/02/02 12:43:36;;;;;;;11.40;2.85;;;;;;;;;;5014374;28;20053;-88
2024/02/02 12:46:03;;;;;;;14.23;2.75;;;;;;;;;;5004536;28;20050;-87
2024/02/02 12:48:30;;;;;;;10.73;3.17;;;;;;;;;;5006125;28;20069;-88
2024/02/02 12:51:00;;;;;;;10.32;3.40;;;;;;;;;;5024880;28;20045;-88
2024/02/02 12:53:28;;;;;;;9.82;3.55;;;;;;;;;;5008687;28;20057;-88
2024/02/02 12:55:55;;;;;;;12.10;2.85;;;;;;;;;;5008442;28;20127;-88
2024/02/02 12:58:23;;;;;;;14.63;2.97;;;;;;;;;;5007433;28;20061;-88
2024/02/02 13:00:50;;;;;;;11.20;2.90;;;;;;;;;;5008783;28;20512;-88
2024/02/02 13:03:17;;;;;;;8.90;2.95;;;;;;;;;;5007850;28;20081;-88
2024/02/02 13:05:46;;;;;;;14.20;3.22;;;;;;;;;;5005139;28;20056;-88
2024/02/02 13:08:16;;;;;;;9.15;2.53;;;;;;;;;;5004432;28;20058;-88
2024/02/02 13:10:44;;;;;;;10.80;3.05;;;;;;;;;;5004960;28;20054;-89
2024/02/02 13:13:12;;;;;;;14.35;2.88;;;;;;;;;;5004465;28;20057;-88
2024/02/02 13:15:40;;;;;;;11.75;3.00;;;;;;;;;;5012297;28;20112;-87
2024/02/02 13:18:16;;;;;;;11.63;3.10;;;;;;;;;;5004942;28;20498;-88
2024/02/02 13:20:45;;;;;;;12.20;2.80;;;;;;;;;;5005136;28;20104;-88
2024/02/02 13:23:20;;;;;;;9.70;2.42;;;;;;;;;;5008509;28;20061;-88
2024/02/02 13:25:57;;;;;;;8.35;2.65;;;;;;;;;;4999975;28;20045;-88
2024/02/02 13:28:25;;;;;;;10.35;2.85;;;;;;;;;;5007366;28;20049;-88
2024/02/02 13:30:54;;;;;;;10.15;2.50;;;;;;;;;;5004380;28;20049;-89
2024/02/02 13:33:26;;;;;;;7.10;2.58;;;;;;;;;;5004432;28;20437;-89
2024/02/02 13:35:54;;;;;;;10.73;3.20;;;;;;;;;;5007558;28;20080;-88
2024/02/02 13:38:22;;;;;;;10.50;2.92;;;;;;;;;;5007615;28;20453;-88
2024/02/02 13:40:53;;;;;;;6.63;2.20;;;;;;;;;;5012673;28;20133;-87
2024/02/02 13:43:21;;;;;;;6.95;2.50;;;;;;;;;;5001072;28;20114;-88
2024/02/02 13:45:49;;;;;;;8.82;2.58;;;;;;;;;;4996771;28;20111;-88
2024/02/02 13:48:16;;;;;;;11.27;2.80;;;;;;;;;;5016230;28;20060;-86
2024/02/02 13:50:51;;;;;;;12.55;2.53;;;;;;;;;;5004522;28;20473;-87
2024/02/02 13:53:22;;;;;;;10.48;2.65;;;;;;;;;;5017008;28;20058;-86
2024/02/02 13:55:50;;;;;;;11.55;3.35;;;;;;;;;;5017858;28;20056;-87
2024/02/02 13:58:17;;;;;;;10.90;3.10;;;;;;;;;;5028992;28;20147;-87
2024/02/02 14:00:45;;;;;;;7.18;2.30;;;;;;;;;;5025394;28;20049;-88
2024/02/02 14:03:15;;;;;;;12.07;2.97;;;;;;;;;;5007546;28;20103;-87
2024/02/02 14:05:44;;;;;;;7.43;2.20;;;;;;;;;;5024174;28;20053;-90
2024/02/02 14:08:12;;;;;;;10.50;3.15;;;;;;;;;;5019395;28;20053;-87
2024/02/02 14:10:46;;;;;;;9.00;2.80;;;;;;;;;;5010113;28;20107;-87
2024/02/02 14:13:16;;;;;;;5.90;2.75;;;;;;;;;;5015404;28;20060;-87
2024/02/02 14:15:48;;;;;;;10.05;3.03;;;;;;;;;;5007598;28;20537;-90
2024/02/02 14:18:19;;;;;;;9.15;3.03;;;;;;;;;;5007776;28;20088;-89
2024/02/02 14:20:47;;;;;;;6.00;2.38;;;;;;;;;;5011869;28;20118;-88
2024/02/02 14:23:15;;;;;;;10.55;3.00;;;;;;;;;;5027368;28;20096;-87
2024/02/02 14:25:42;;;;;;;10.00;2.97;;;;;;;;;;5010951;28;20131;-88
2024/02/02 14:28:19;;;;;;;13.23;3.17;;;;;;;;;;5010400;28;20101;-87
2024/02/02 14:30:47;;;;;;;9.93;3.00;;;;;;;;;;5019724;28;20049;-87
2024/02/02 14:33:19;;;;;;;7.93;3.05;;;;;;;;;;5010822;28;20046;-88
2024/02/02 14:35:52;;;;;;;10.32;3.25;;;;;;;;;;5015289;28;20556;-88
2024/02/02 14:38:20;;;;;;;9.32;2.88;;;;;;;;;;5012211;28;20352;-88
2024/02/02 14:40:48;;;;;;;12.15;3.17;;;;;;;;;;5007344;28;20494;-87
2024/02/02 14:43:16;;;;;;;8.90;3.00;;;;;;;;;;5006859;28;20045;-87
2024/02/02 14:45:43;;;;;;;11.60;2.80;;;;;;;;;;5023235;28;20399;-88
2024/02/02 14:48:13;;;;;;;11.80;2.75;;;;;;;;;;5007171;28;20065;-87
2024/02/02 14:50:40;;;;;;;10.05;2.47;;;;;;;;;;5010067;28;20060;-87